Time;durP1;ratioP1;P1;durP2;ratioP2;P2;SDS_P1;SDS_P2;PMS_P1;PMS_P2;Temp;Humidity;BMP_temperature;BMP_pressure;BME280_temperature;BME280_humidity;BME280_pressure;Samples;Min_cycle;Max_cycle;Signal;HPM_P1;HPM_P2
2024/03/27 00:00:11;;;;;;;3.40;3.03;;;;;;;7.92;79.27;92693.03;521967;28;900;-75
2024/03/27 00:00:26;;;;;;;3.78;3.47;;;;;;;7.93;79.54;92697.22;521853;28;827;-74
2024/03/27 00:00:42;;;;;;;3.90;3.50;;;;;;;7.94;79.50;92695.97;521968;28;757;-75
2024/03/27 00:00:58;;;;;;;3.80;3.38;;;;;;;7.96;79.53;92698.88;521795;28;852;-75
2024/03/27 00:01:13;;;;;;;3.80;3.40;;;;;;;7.98;79.63;92697.06;521966;28;931;-75
2024/03/27 00:01:29;;;;;;;4.03;3.40;;;;;;;7.96;79.29;92699.63;521808;28;768;-74
2024/03/27 00:01:46;;;;;;;3.67;3.22;;;;;;;7.93;79.43;92697.22;521911;28;860;-74
2024/03/27 00:02:01;;;;;;;3.47;3.17;;;;;;;7.94;79.46;92701.47;521882;28;969;-75
2024/03/27 00:02:17;;;;;;;4.00;3.10;;;;;;;7.95;79.32;92700.19;521885;28;813;-74
2024/03/27 00:02:32;;;;;;;3.40;2.80;;;;;;;7.95;79.40;92697.44;521918;28;938;-74
2024/03/27 00:02:48;;;;;;;3.20;2.90;;;;;;;7.95;79.41;92700.91;521842;28;907;-75
2024/03/27 00:03:04;;;;;;;3.40;3.10;;;;;;;7.96;79.62;92699.63;521819;28;1017;-75
2024/03/27 00:03:21;;;;;;;3.33;3.03;;;;;;;7.96;79.31;92696.88;521824;28;840;-75
2024/03/27 00:03:37;;;;;;;3.22;2.92;;;;;;;7.98;79.19;92699.06;521822;28;860;-74
2024/03/27 00:03:53;;;;;;;3.07;2.77;;;;;;;8.00;79.42;92697.25;521828;28;927;-74
2024/03/27 00:04:09;;;;;;;3.35;3.05;;;;;;;8.02;79.40;92702.19;521893;28;844;-75
2024/03/27 00:04:24;;;;;;;3.45;3.15;;;;;;;8.02;79.56;92694.69;521826;28;812;-74
2024/03/27 00:04:40;;;;;;;3.40;2.97;;;;;;;8.05;79.43;92693.59;521907;28;781;-74
2024/03/27 00:04:55;;;;;;;3.43;2.97;;;;;;;8.07;79.39;92695.78;521842;28;1918;-74
2024/03/27 00:05:13;;;;;;;3.28;2.97;;;;;;;8.08;79.44;92700.72;521955;28;847;-75
2024/03/27 00:05:29;;;;;;;3.40;3.10;;;;;;;8.10;79.34;92700.91;521898;28;884;-74
2024/03/27 00:05:44;;;;;;;3.42;3.13;;;;;;;8.11;79.41;92696.88;521899;28;863;-75
2024/03/27 00:06:00;;;;;;;3.57;3.00;;;;;;;8.14;79.53;92703.28;521908;28;793;-75
2024/03/27 00:06:15;;;;;;;3.38;2.85;;;;;;;8.15;79.26;92702.00;521811;28;828;-74
2024/03/27 00:06:31;;;;;;;4.67;3.17;;;;;;;8.16;79.32;92706.97;521911;28;761;-74
2024/03/27 00:06:46;;;;;;;5.53;3.63;;;;;;;8.18;79.29;92698.91;521836;28;803;-75
2024/03/27 00:07:02;;;;;;;4.03;3.60;;;;;;;8.01;79.31;92673.94;521897;28;789;-75
2024/03/27 00:07:18;;;;;;;3.80;3.40;;;;;;;8.20;79.27;92704.56;521679;28;874;-74
2024/03/27 00:07:33;;;;;;;4.03;3.33;;;;;;;8.21;79.25;92702.53;521800;28;911;-74
2024/03/27 00:07:49;;;;;;;5.77;3.60;;;;;;;8.22;79.32;92710.25;521687;28;820;-74
2024/03/27 00:08:04;;;;;;;5.40;3.60;;;;;;;8.23;79.26;92702.72;521837;28;859;-74
2024/03/27 00:08:20;;;;;;;3.70;3.40;;;;;;;8.24;79.13;92696.69;521734;28;748;-74
2024/03/27 00:08:36;;;;;;;4.03;3.47;;;;;;;8.25;79.12;92705.66;521681;28;838;-74
2024/03/27 00:08:51;;;;;;;6.07;3.83;;;;;;;8.27;79.39;92714.13;521724;28;741;-74
2024/03/27 00:09:11;;;;;;;5.25;3.80;;;;;;;8.27;79.23;92706.59;521728;28;846;-75
2024/03/27 00:09:26;;;;;;;3.42;3.10;;;;;;;8.27;79.16;92712.09;521815;28;914;-74
2024/03/27 00:09:42;;;;;;;3.10;2.80;;;;;;;8.23;79.20;92705.47;521958;28;828;-74
2024/03/27 00:09:58;;;;;;;3.72;3.22;;;;;;;8.26;79.05;92707.16;521842;28;907;-74
2024/03/27 00:10:14;;;;;;;4.38;3.38;;;;;;;8.24;78.90;92707.69;521903;28;835;-74
2024/03/27 00:10:29;;;;;;;3.97;3.22;;;;;;;8.22;78.79;92717.75;521957;28;815;-74
2024/03/27 00:10:45;;;;;;;3.30;3.00;;;;;;;8.17;78.91;92704.91;521894;28;847;-75
2024/03/27 00:11:00;;;;;;;3.13;2.83;;;;;;;8.14;79.01;92708.78;521964;28;855;-74
2024/03/27 00:11:16;;;;;;;3.75;3.10;;;;;;;8.14;78.96;92706.75;521848;28;1017;-74
2024/03/27 00:11:31;;;;;;;4.20;3.30;;;;;;;8.14;78.90;92711.53;521907;28;771;-74
2024/03/27 00:11:49;;;;;;;4.90;3.20;;;;;;;8.12;79.03;92709.31;521834;28;1104;-74
2024/03/27 00:12:05;;;;;;;3.85;2.92;;;;;;;8.13;78.92;92712.81;522025;28;839;-74
2024/03/27 00:12:20;;;;;;;3.27;2.97;;;;;;;8.08;78.84;92703.47;521877;28;796;-74
2024/03/27 00:12:36;;;;;;;3.13;2.83;;;;;;;8.09;78.90;92704.94;521905;28;780;-74
2024/03/27 00:12:51;;;;;;;2.80;2.60;;;;;;;8.08;78.99;92710.97;521843;28;780;-74
2024/03/27 00:13:07;;;;;;;3.10;2.80;;;;;;;8.07;79.30;92713.00;521900;28;740;-74
2024/03/27 00:13:22;;;;;;;3.27;2.97;;;;;;;8.07;79.24;92713.00;521934;28;763;-74
2024/03/27 00:13:38;;;;;;;3.00;2.80;;;;;;;8.07;79.14;92713.00;521910;28;867;-74
2024/03/27 00:13:54;;;;;;;3.37;3.07;;;;;;;8.08;79.04;92710.97;521879;28;898;-75
2024/03/27 00:14:11;;;;;;;3.65;3.35;;;;;;;8.07;79.27;92709.53;521820;28;865;-74
2024/03/27 00:14:26;;;;;;;3.63;3.33;;;;;;;8.08;79.31;92713.72;521930;28;860;-74
2024/03/27 00:14:41;;;;;;;4.15;3.70;;;;;;;8.08;79.28;92710.97;521915;28;800;-74
2024/03/27 00:14:58;;;;;;;4.37;3.63;;;;;;;8.09;79.22;92723.44;521848;28;797;-74
2024/03/27 00:15:15;;;;;;;4.07;3.67;;;;;;;8.09;79.25;92715.94;521890;28;896;-74
2024/03/27 00:15:30;;;;;;;4.00;3.60;;;;;;;8.12;79.21;92717.56;521776;28;946;-74
2024/03/27 00:15:52;;;;;;;3.95;3.55;;;;;;;8.12;79.21;92711.38;521894;28;859;-74
2024/03/27 00:16:08;;;;;;;3.92;3.53;;;;;;;8.14;79.18;92711.53;521813;28;920;-74
2024/03/27 00:16:23;;;;;;;3.53;3.22;;;;;;;8.14;79.29;92708.78;521920;28;765;-74
2024/03/27 00:16:39;;;;;;;3.85;3.47;;;;;;;8.15;79.30;92713.00;521795;28;808;-74
2024/03/27 00:16:54;;;;;;;4.23;3.83;;;;;;;8.16;79.26;92715.22;521920;28;785;-74
2024/03/27 00:17:09;;;;;;;4.28;3.88;;;;;;;8.15;79.28;92713.72;521863;28;851;-74
2024/03/27 00:17:25;;;;;;;4.43;3.97;;;;;;;8.14;79.26;92709.50;521874;28;1072;-74
2024/03/27 00:17:40;;;;;;;4.63;4.10;;;;;;;8.12;79.22;92717.56;521887;28;784;-74
2024/03/27 00:17:56;;;;;;;5.15;4.20;;;;;;;8.02;79.25;92702.19;521815;28;910;-74
2024/03/27 00:18:11;;;;;;;5.13;4.20;;;;;;;8.12;79.24;92714.81;521830;28;840;-74
2024/03/27 00:18:27;;;;;;;4.30;3.83;;;;;;;8.13;79.20;92713.56;521732;28;903;-74
2024/03/27 00:18:42;;;;;;;4.17;3.73;;;;;;;8.13;79.33;92708.06;521915;28;919;-74
2024/03/27 00:18:58;;;;;;;4.00;3.47;;;;;;;8.15;79.19;92715.75;521795;28;851;-74
2024/03/27 00:19:13;;;;;;;3.60;3.30;;;;;;;8.07;79.12;92704.75;521893;28;800;-74
2024/03/27 00:19:29;;;;;;;3.80;3.50;;;;;;;8.08;79.36;92706.22;521902;28;836;-75
2024/03/27 00:19:45;;;;;;;3.90;3.60;;;;;;;8.09;79.38;92715.19;521782;28;1666;-74
2024/03/27 00:20:00;;;;;;;4.00;3.60;;;;;;;8.10;79.44;92711.91;521864;28;772;-75
2024/03/27 00:20:16;;;;;;;3.50;3.20;;;;;;;8.11;79.55;92718.88;521780;28;1180;-74
2024/03/27 00:20:31;;;;;;;3.17;2.88;;;;;;;8.14;79.51;92712.25;521925;28;868;-74
2024/03/27 00:20:47;;;;;;;3.10;2.80;;;;;;;8.15;79.37;92716.47;521816;28;855;-74
2024/03/27 00:21:03;;;;;;;2.97;2.72;;;;;;;8.15;79.59;92713.72;521926;28;820;-74
2024/03/27 00:21:18;;;;;;;3.30;3.03;;;;;;;8.16;79.38;92711.72;521807;28;824;-74
2024/03/27 00:21:34;;;;;;;3.37;3.07;;;;;;;8.17;79.43;92722.16;521945;28;879;-74
2024/03/27 00:21:50;;;;;;;3.33;3.03;;;;;;;8.18;79.61;92725.66;521815;28;800;-74
2024/03/27 00:22:05;;;;;;;3.78;3.33;;;;;;;8.18;79.41;92720.16;521859;28;784;-74
2024/03/27 00:22:21;;;;;;;4.53;3.55;;;;;;;8.20;79.39;92718.31;521817;28;764;-74
2024/03/27 00:22:36;;;;;;;4.63;3.47;;;;;;;8.20;79.49;92723.09;521858;28;824;-74
2024/03/27 00:22:52;;;;;;;4.88;3.80;;;;;;;8.19;79.46;92722.34;521935;28;782;-75
2024/03/27 00:23:07;;;;;;;5.13;3.87;;;;;;;8.19;79.36;92722.34;521802;28;859;-76
2024/03/27 00:23:23;;;;;;;4.78;3.65;;;;;;;8.20;79.30;92718.31;521918;28;839;-74
2024/03/27 00:23:38;;;;;;;4.47;3.50;;;;;;;8.20;79.42;92715.56;521902;28;788;-74
2024/03/27 00:23:55;;;;;;;6.18;3.60;;;;;;;8.22;79.41;92720.50;521816;28;769;-75
2024/03/27 00:24:10;;;;;;;5.03;3.65;;;;;;;8.21;79.34;92719.78;521873;28;930;-75
2024/03/27 00:24:29;;;;;;;4.00;3.55;;;;;;;8.22;79.47;92723.25;521824;28;907;-74
2024/03/27 00:24:44;;;;;;;4.15;3.25;;;;;;;8.23;79.35;92721.97;521875;28;864;-75
2024/03/27 00:25:00;;;;;;;3.67;2.93;;;;;;;8.24;79.53;92720.69;521815;28;2073;-74
2024/03/27 00:25:15;;;;;;;3.30;2.95;;;;;;;8.24;79.36;92717.94;521790;28;772;-74
2024/03/27 00:25:31;;;;;;;3.67;3.10;;;;;;;8.22;79.29;92710.25;521869;28;855;-74
2024/03/27 00:25:55;;;;;;;3.67;3.25;;;;;;;8.23;79.29;92717.19;521864;28;764;-74
2024/03/27 00:26:11;;;;;;;3.15;2.85;;;;;;;8.23;79.42;92719.22;521885;28;819;-74
2024/03/27 00:26:26;;;;;;;3.20;2.90;;;;;;;8.24;79.29;92717.94;521895;28;745;-74
2024/03/27 00:26:41;;;;;;;3.40;3.10;;;;;;;8.23;79.49;92719.94;521747;28;811;-74
2024/03/27 00:26:57;;;;;;;3.50;3.20;;;;;;;8.24;79.50;92724.19;521744;28;816;-74
2024/03/27 00:27:12;;;;;;;3.87;3.30;;;;;;;8.24;79.31;92717.94;521984;28;843;-74
2024/03/27 00:27:28;;;;;;;3.80;3.38;;;;;;;8.24;79.35;92723.44;521801;28;780;-74
2024/03/27 00:27:43;;;;;;;3.80;3.40;;;;;;;8.23;79.21;92722.69;521949;28;816;-74
2024/03/27 00:27:59;;;;;;;4.00;3.60;;;;;;;8.23;79.22;92713.72;521817;28;797;-74
2024/03/27 00:28:15;;;;;;;3.88;3.40;;;;;;;8.23;79.14;92710.97;521912;28;816;-74
2024/03/27 00:28:30;;;;;;;3.72;3.40;;;;;;;8.11;78.84;92696.88;521878;28;800;-74
2024/03/27 00:28:46;;;;;;;3.63;3.33;;;;;;;8.20;79.14;92718.31;521869;28;792;-74
2024/03/27 00:29:01;;;;;;;3.88;3.40;;;;;;;8.15;79.09;92707.50;521892;28;789;-74
2024/03/27 00:29:18;;;;;;;4.43;3.30;;;;;;;8.21;79.09;92716.28;521765;28;862;-74
2024/03/27 00:29:34;;;;;;;3.92;3.35;;;;;;;8.21;79.06;92717.03;521883;28;852;-74
2024/03/27 00:29:50;;;;;;;3.87;3.53;;;;;;;8.22;79.08;92715.75;521608;28;875;-74
2024/03/27 00:30:09;;;;;;;3.63;3.22;;;;;;;8.24;79.13;92712.44;521547;28;945;-74
2024/03/27 00:30:24;;;;;;;4.68;3.28;;;;;;;8.24;79.22;92718.69;521638;28;817;-74
2024/03/27 00:30:40;;;;;;;4.40;3.30;;;;;;;8.23;79.10;92721.97;521850;28;828;-74
2024/03/27 00:30:55;;;;;;;3.88;3.50;;;;;;;8.21;78.98;92717.03;521809;28;789;-74
2024/03/27 00:31:11;;;;;;;4.00;3.60;;;;;;;8.21;78.96;92708.78;521863;28;1013;-74
2024/03/27 00:31:27;;;;;;;4.00;3.60;;;;;;;8.09;78.89;92693.94;521881;28;806;-74
2024/03/27 00:31:42;;;;;;;4.40;3.83;;;;;;;8.24;78.98;92715.19;521866;28;843;-74
2024/03/27 00:31:58;;;;;;;4.87;3.90;;;;;;;8.22;78.95;92710.25;521805;28;773;-74
2024/03/27 00:32:13;;;;;;;4.47;3.87;;;;;;;8.23;78.90;92711.69;521810;28;852;-74
2024/03/27 00:32:29;;;;;;;4.05;3.63;;;;;;;8.22;79.09;92704.00;521864;28;822;-74
2024/03/27 00:32:44;;;;;;;4.18;3.78;;;;;;;8.23;78.91;92706.19;521869;28;807;-74
2024/03/27 00:33:01;;;;;;;3.93;3.63;;;;;;;8.25;78.94;92708.41;521859;28;996;-74
2024/03/27 00:33:17;;;;;;;3.90;3.58;;;;;;;8.25;79.12;92708.41;521741;28;808;-74
2024/03/27 00:33:33;;;;;;;3.95;3.55;;;;;;;8.24;78.92;92707.69;521847;28;843;-74
2024/03/27 00:33:48;;;;;;;5.63;3.60;;;;;;;8.25;78.98;92706.41;521853;28;852;-74
2024/03/27 00:34:04;;;;;;;5.60;3.65;;;;;;;8.27;79.26;92705.88;521843;28;883;-74
2024/03/27 00:34:19;;;;;;;4.43;3.90;;;;;;;8.29;78.95;92709.53;521745;28;820;-74
2024/03/27 00:34:34;;;;;;;4.47;3.55;;;;;;;8.30;78.94;92707.50;521653;28;2387;-74
2024/03/27 00:34:50;;;;;;;3.50;3.17;;;;;;;8.31;79.34;92700.75;521649;28;877;-74
2024/03/27 00:35:05;;;;;;;3.53;3.23;;;;;;;8.32;79.04;92704.94;521670;28;936;-74
2024/03/27 00:35:21;;;;;;;4.45;3.58;;;;;;;8.33;79.14;92701.66;521753;28;785;-74
2024/03/27 00:35:37;;;;;;;4.53;3.83;;;;;;;8.34;79.02;92705.13;521604;28;938;-74
2024/03/27 00:36:01;;;;;;;3.93;3.60;;;;;;;8.37;79.10;92695.78;521711;28;867;-74
2024/03/27 00:36:17;;;;;;;3.40;3.10;;;;;;;8.38;79.12;92700.00;521588;28;880;-74
2024/03/27 00:36:32;;;;;;;3.43;3.13;;;;;;;8.09;78.90;92649.22;521878;28;856;-74
2024/03/27 00:36:48;;;;;;;4.15;3.25;;;;;;;8.39;78.99;92695.94;521691;28;899;-74
2024/03/27 00:37:06;;;;;;;4.13;3.17;;;;;;;8.34;79.03;92697.59;521885;28;808;-74
2024/03/27 00:37:21;;;;;;;3.30;3.00;;;;;;;8.28;78.71;92699.81;521824;28;1766;-74
2024/03/27 00:37:37;;;;;;;3.65;3.10;;;;;;;8.25;78.67;92694.66;521801;28;1085;-74
2024/03/27 00:37:52;;;;;;;4.23;3.30;;;;;;;8.23;78.83;92702.72;521839;28;1000;-74
2024/03/27 00:38:08;;;;;;;3.70;3.17;;;;;;;8.21;78.64;92695.03;521829;28;800;-74
2024/03/27 00:38:25;;;;;;;3.60;3.10;;;;;;;8.21;78.76;92697.03;521875;28;957;-74
2024/03/27 00:38:40;;;;;;;3.40;3.10;;;;;;;8.21;78.97;92686.03;521869;28;946;-74
2024/03/27 00:38:56;;;;;;;3.30;3.00;;;;;;;8.15;79.08;92691.72;521775;28;800;-74
2024/03/27 00:39:11;;;;;;;3.70;3.20;;;;;;;8.19;79.44;92694.84;521813;28;912;-74
2024/03/27 00:39:27;;;;;;;3.60;3.20;;;;;;;8.20;79.28;92690.81;521748;28;856;-74
2024/03/27 00:39:42;;;;;;;3.40;3.10;;;;;;;8.22;79.55;92687.50;521959;28;877;-74
2024/03/27 00:39:58;;;;;;;3.47;3.13;;;;;;;8.22;79.37;92691.00;521788;28;839;-74
2024/03/27 00:40:13;;;;;;;3.50;3.20;;;;;;;8.24;79.47;92682.19;521848;28;1124;-75
2024/03/27 00:40:29;;;;;;;3.40;3.10;;;;;;;8.26;79.45;92688.63;521801;28;994;-74
2024/03/27 00:40:45;;;;;;;3.27;2.97;;;;;;;8.22;79.36;92685.50;521835;28;761;-74
2024/03/27 00:41:00;;;;;;;3.03;2.83;;;;;;;8.19;79.02;92691.34;521672;28;1053;-74
2024/03/27 00:41:15;;;;;;;3.20;2.90;;;;;;;8.17;78.95;92685.69;521912;28;816;-74
2024/03/27 00:41:31;;;;;;;3.83;2.88;;;;;;;8.17;78.93;92680.19;521889;28;832;-74
2024/03/27 00:41:46;;;;;;;3.70;2.90;;;;;;;8.17;78.64;92682.94;521735;28;856;-74
2024/03/27 00:42:02;;;;;;;4.68;2.90;;;;;;;8.16;78.59;92679.47;521835;28;836;-74
2024/03/27 00:42:17;;;;;;;3.93;2.70;;;;;;;8.18;78.67;92681.66;521747;28;765;-74
2024/03/27 00:42:33;;;;;;;2.92;2.70;;;;;;;8.16;78.53;92678.72;521838;28;820;-74
2024/03/27 00:42:49;;;;;;;3.17;2.90;;;;;;;8.17;78.75;92680.91;521812;28;980;-74
2024/03/27 00:43:06;;;;;;;3.13;2.83;;;;;;;8.19;78.60;92683.09;521919;28;832;-74
2024/03/27 00:43:21;;;;;;;3.08;2.72;;;;;;;8.19;78.53;92670.09;521756;28;832;-74
2024/03/27 00:43:37;;;;;;;3.70;2.85;;;;;;;8.13;78.66;92679.81;521825;28;825;-74
2024/03/27 00:43:52;;;;;;;3.23;2.90;;;;;;;8.10;78.74;92675.44;521862;28;907;-74
2024/03/27 00:44:08;;;;;;;2.92;2.70;;;;;;;8.09;78.71;92679.47;521824;28;804;-74
2024/03/27 00:44:23;;;;;;;2.77;2.50;;;;;;;8.09;78.47;92671.22;521882;28;1683;-74
2024/03/27 00:44:39;;;;;;;2.88;2.60;;;;;;;8.10;78.40;92667.91;521113;28;1123;-74
2024/03/27 00:44:55;;;;;;;2.97;2.67;;;;;;;8.10;78.45;92672.69;519618;28;1975;-74
2024/03/27 00:45:10;;;;;;;2.90;2.70;;;;;;;8.08;78.51;92669.72;519767;28;777;-75
2024/03/27 00:45:25;;;;;;;2.80;2.50;;;;;;;8.07;78.76;92674.53;519740;28;797;-74
2024/03/27 00:45:42;;;;;;;3.10;2.50;;;;;;;8.03;78.93;92676.16;519810;28;793;-74
2024/03/27 00:46:01;;;;;;;3.00;2.50;;;;;;;7.99;78.93;92678.56;519650;28;797;-74
2024/03/27 00:46:17;;;;;;;2.80;2.53;;;;;;;7.98;79.26;92679.81;519752;28;958;-74
2024/03/27 00:46:32;;;;;;;3.10;2.60;;;;;;;7.97;79.08;92679.09;519857;28;808;-74
2024/03/27 00:46:48;;;;;;;3.28;2.60;;;;;;;7.98;79.16;92677.81;519687;28;860;-74
2024/03/27 00:47:03;;;;;;;2.87;2.50;;;;;;;7.98;79.23;92680.56;519733;28;800;-74
2024/03/27 00:47:19;;;;;;;3.10;2.77;;;;;;;7.97;79.41;92679.09;519677;28;824;-74
2024/03/27 00:47:34;;;;;;;3.45;3.10;;;;;;;7.79;79.61;92660.22;519818;28;1069;-74
2024/03/27 00:47:49;;;;;;;4.20;3.60;;;;;;;7.90;79.88;92679.84;519724;28;816;-74
2024/03/27 00:48:05;;;;;;;4.03;3.50;;;;;;;7.90;79.91;92679.84;519680;28;1172;-74
2024/03/27 00:48:20;;;;;;;3.43;3.13;;;;;;;7.85;79.96;92678.00;519813;28;784;-74
2024/03/27 00:48:36;;;;;;;3.30;3.00;;;;;;;7.81;80.28;92682.41;519831;28;880;-74
2024/03/27 00:48:51;;;;;;;3.33;3.03;;;;;;;7.65;80.36;92654.91;519719;28;832;-74
2024/03/27 00:49:07;;;;;;;3.30;3.00;;;;;;;7.77;80.51;92682.03;519730;28;852;-74
2024/03/27 00:49:22;;;;;;;3.10;2.80;;;;;;;7.73;80.68;92676.19;519751;28;827;-74
2024/03/27 00:49:38;;;;;;;2.92;2.72;;;;;;;7.71;80.70;92684.94;519732;28;902;-74
2024/03/27 00:49:53;;;;;;;3.30;3.00;;;;;;;7.68;81.09;92683.31;519705;28;784;-74
2024/03/27 00:50:09;;;;;;;3.60;3.17;;;;;;;7.68;81.23;92677.81;519670;28;780;-74
2024/03/27 00:50:24;;;;;;;4.60;3.15;;;;;;;7.67;81.26;92675.63;519745;28;831;-74
2024/03/27 00:50:40;;;;;;;4.40;3.07;;;;;;;7.68;81.47;92685.31;519776;28;942;-74
2024/03/27 00:50:55;;;;;;;3.22;2.92;;;;;;;7.64;81.80;92675.41;519766;28;781;-74
2024/03/27 00:51:11;;;;;;;3.27;2.97;;;;;;;7.63;81.42;92681.47;519686;28;847;-74
2024/03/27 00:51:26;;;;;;;3.30;3.00;;;;;;;7.62;81.92;92677.28;519738;28;765;-74
2024/03/27 00:51:42;;;;;;;3.13;2.90;;;;;;;7.63;81.78;92678.72;519761;28;867;-74
2024/03/27 00:51:57;;;;;;;3.37;3.07;;;;;;;7.64;81.74;92686.41;519655;28;855;-74
2024/03/27 00:52:13;;;;;;;3.73;3.40;;;;;;;7.65;nan;92679.66;519711;28;914;-74
2024/03/27 00:52:28;;;;;;;4.22;3.28;;;;;;;7.65;82.03;92678.91;519707;28;753;-74
2024/03/27 00:52:45;;;;;;;3.47;2.87;;;;;;;7.68;82.04;92679.81;519809;28;918;-74
2024/03/27 00:53:02;;;;;;;3.33;3.03;;;;;;;7.69;82.01;92676.53;519769;28;851;-74
2024/03/27 00:53:17;;;;;;;4.50;3.22;;;;;;;7.71;82.12;92678.75;519663;28;855;-74
2024/03/27 00:53:33;;;;;;;4.70;3.10;;;;;;;7.70;82.16;92675.25;519831;28;772;-74
2024/03/27 00:53:49;;;;;;;3.67;3.20;;;;;;;7.71;82.28;92670.50;519753;28;776;-74
2024/03/27 00:54:04;;;;;;;3.60;3.30;;;;;;;7.71;82.23;92678.75;519765;28;887;-74
2024/03/27 00:54:20;;;;;;;3.87;3.47;;;;;;;7.71;82.35;92676.00;519627;28;772;-75
2024/03/27 00:54:35;;;;;;;4.13;3.72;;;;;;;7.70;82.33;92672.50;519742;28;828;-74
2024/03/27 00:54:51;;;;;;;4.27;3.87;;;;;;;7.70;82.46;92669.75;519709;28;860;-74
2024/03/27 00:55:06;;;;;;;4.00;3.70;;;;;;;7.64;82.57;92660.97;519743;28;863;-74
2024/03/27 00:55:22;;;;;;;3.90;3.60;;;;;;;7.70;82.45;92669.75;519759;28;871;-74
2024/03/27 00:55:38;;;;;;;4.17;3.77;;;;;;;7.71;82.48;92671.22;519690;28;918;-74
2024/03/27 00:56:00;;;;;;;4.35;3.83;;;;;;;7.71;82.55;92668.47;519804;28;791;-74
2024/03/27 00:56:15;;;;;;;4.20;3.80;;;;;;;7.68;82.62;92671.59;519738;28;883;-74
2024/03/27 00:56:31;;;;;;;4.50;3.93;;;;;;;7.65;82.99;92674.16;519788;28;776;-74
2024/03/27 00:56:46;;;;;;;4.55;4.07;;;;;;;7.65;82.70;92671.41;519699;28;826;-74
2024/03/27 00:57:02;;;;;;;4.60;4.20;;;;;;;7.67;82.74;92681.13;521315;28;1097;-74
2024/03/27 00:57:18;;;;;;;4.50;4.10;;;;;;;7.67;82.95;92673.59;521747;28;800;-74
2024/03/27 00:57:33;;;;;;;4.22;3.80;;;;;;;7.65;82.98;92668.66;521849;28;983;-74
2024/03/27 00:57:49;;;;;;;4.23;3.83;;;;;;;7.64;82.78;92669.91;521709;28;785;-75
2024/03/27 00:58:05;;;;;;;4.35;3.95;;;;;;;7.58;82.91;92663.13;521850;28;1035;-75
2024/03/27 00:58:20;;;;;;;4.47;4.07;;;;;;;7.62;83.07;92677.97;521761;28;784;-75
2024/03/27 00:58:36;;;;;;;4.70;4.10;;;;;;;7.63;83.09;92675.97;521813;28;776;-74
2024/03/27 00:58:51;;;;;;;5.30;3.78;;;;;;;7.64;83.18;92669.22;521804;28;856;-74
2024/03/27 00:59:07;;;;;;;5.47;3.80;;;;;;;7.64;83.25;92672.66;521830;28;794;-75
2024/03/27 00:59:22;;;;;;;4.95;3.88;;;;;;;7.65;83.24;92673.41;521805;28;866;-74
2024/03/27 00:59:38;;;;;;;5.73;3.80;;;;;;;7.66;83.27;92674.88;521824;28;840;-74
2024/03/27 00:59:55;;;;;;;5.55;3.80;;;;;;;7.67;83.16;92672.88;521759;28;1029;-74
2024/03/27 01:00:11;;;;;;;3.97;3.55;;;;;;;7.68;83.38;92675.06;521821;28;820;-74
2024/03/27 01:00:28;;;;;;;4.00;3.60;;;;;;;7.67;83.06;92673.59;521790;28;832;-74
2024/03/27 01:00:43;;;;;;;4.13;3.58;;;;;;;7.65;83.10;92676.16;521828;28;1061;-74
2024/03/27 01:00:59;;;;;;;4.57;3.33;;;;;;;7.64;83.05;92674.69;521804;28;855;-74
2024/03/27 01:01:14;;;;;;;5.10;3.45;;;;;;;7.62;83.21;92680.72;521773;28;914;-74
2024/03/27 01:01:30;;;;;;;4.33;3.57;;;;;;;7.40;83.24;92645.75;521847;28;756;-74
2024/03/27 01:01:45;;;;;;;4.00;3.55;;;;;;;7.61;83.35;92682.03;521761;28;891;-75
2024/03/27 01:02:01;;;;;;;3.90;3.50;;;;;;;7.61;83.45;92679.28;521806;28;836;-75
2024/03/27 01:02:16;;;;;;;4.07;3.40;;;;;;;7.58;83.59;92671.38;521748;28;788;-75
2024/03/27 01:02:32;;;;;;;3.77;3.37;;;;;;;7.55;83.79;92680.75;521756;28;887;-74
2024/03/27 01:02:48;;;;;;;3.70;3.40;;;;;;;7.54;83.76;92676.50;521763;28;1118;-74
2024/03/27 01:03:03;;;;;;;3.80;3.50;;;;;;;7.55;83.77;92678.72;521792;28;835;-75
2024/03/27 01:03:19;;;;;;;3.80;3.50;;;;;;;7.57;83.81;92680.91;521691;28;851;-74
2024/03/27 01:03:35;;;;;;;3.83;3.42;;;;;;;7.55;83.73;92675.25;521887;28;871;-75
2024/03/27 01:03:50;;;;;;;4.57;3.67;;;;;;;7.57;83.79;92680.91;521790;28;827;-75
2024/03/27 01:04:06;;;;;;;4.22;3.70;;;;;;;7.57;83.97;92676.16;521757;28;1141;-75
2024/03/27 01:04:21;;;;;;;3.83;3.50;;;;;;;7.60;83.89;92680.53;521804;28;995;-74
2024/03/27 01:04:37;;;;;;;3.80;3.47;;;;;;;7.62;83.72;92675.22;521802;28;801;-74
2024/03/27 01:04:52;;;;;;;4.03;3.50;;;;;;;7.63;83.85;92678.72;521789;28;1961;-74
2024/03/27 01:05:08;;;;;;;3.95;3.33;;;;;;;7.60;83.74;92674.34;521688;28;769;-74
2024/03/27 01:05:23;;;;;;;3.72;3.42;;;;;;;7.57;83.68;92676.16;521756;28;1045;-74
2024/03/27 01:05:40;;;;;;;4.10;3.70;;;;;;;7.55;83.69;92678.72;521749;28;864;-74
2024/03/27 01:05:55;;;;;;;3.97;3.58;;;;;;;7.54;83.76;92680.00;521830;28;999;-74
2024/03/27 01:06:10;;;;;;;3.60;3.30;;;;;;;7.55;83.71;92675.25;521802;28;968;-74
2024/03/27 01:06:26;;;;;;;3.47;3.17;;;;;;;7.57;83.82;92672.69;521803;28;847;-74
2024/03/27 01:06:42;;;;;;;3.88;3.47;;;;;;;7.58;83.83;92668.63;521760;28;864;-74
2024/03/27 01:06:57;;;;;;;3.90;3.50;;;;;;;7.60;83.88;92675.06;521724;28;836;-74
2024/03/27 01:07:13;;;;;;;4.10;3.40;;;;;;;7.61;84.01;92668.28;521698;28;903;-74
2024/03/27 01:07:28;;;;;;;4.10;3.30;;;;;;;7.64;83.74;92669.22;521791;28;1000;-74
2024/03/27 01:07:44;;;;;;;3.45;3.10;;;;;;;7.66;83.74;92666.66;521888;28;772;-74
2024/03/27 01:07:59;;;;;;;3.40;3.10;;;;;;;7.69;83.75;92671.03;521785;28;797;-74
2024/03/27 01:08:14;;;;;;;4.65;3.40;;;;;;;7.70;83.66;92666.28;521720;28;816;-74
2024/03/27 01:08:30;;;;;;;4.83;3.60;;;;;;;7.45;83.54;92638.63;521762;28;903;-74
2024/03/27 01:08:45;;;;;;;3.83;3.53;;;;;;;7.65;83.51;92663.16;521778;28;801;-74
2024/03/27 01:09:01;;;;;;;4.00;3.50;;;;;;;7.68;83.45;92668.84;521759;28;784;-74
2024/03/27 01:09:16;;;;;;;4.03;3.40;;;;;;;7.65;83.38;92667.91;521749;28;848;-74
2024/03/27 01:09:32;;;;;;;3.70;3.30;;;;;;;7.67;83.38;92673.59;521819;28;831;-74
2024/03/27 01:09:49;;;;;;;3.63;3.30;;;;;;;7.69;83.39;92673.06;521731;28;896;-75
2024/03/27 01:10:05;;;;;;;3.90;3.53;;;;;;;7.69;83.33;92675.81;521865;28;808;-74
2024/03/27 01:10:21;;;;;;;3.70;3.40;;;;;;;7.62;83.26;92677.28;521860;28;946;-74
2024/03/27 01:10:38;;;;;;;3.50;3.20;;;;;;;7.60;83.28;92677.78;521826;28;792;-74
2024/03/27 01:10:53;;;;;;;3.50;3.20;;;;;;;7.57;83.22;92675.44;521781;28;942;-74
2024/03/27 01:11:08;;;;;;;3.67;3.30;;;;;;;7.55;83.20;92678.72;521768;28;847;-74
2024/03/27 01:11:24;;;;;;;3.87;3.33;;;;;;;7.57;83.26;92681.66;521833;28;792;-74
2024/03/27 01:11:40;;;;;;;3.83;3.03;;;;;;;7.59;83.20;92678.34;521794;28;832;-74
2024/03/27 01:11:55;;;;;;;3.77;3.00;;;;;;;7.57;83.38;92680.91;521728;28;844;-74
2024/03/27 01:12:12;;;;;;;3.90;3.20;;;;;;;7.55;83.29;92684.22;521657;28;761;-74
2024/03/27 01:12:27;;;;;;;4.15;3.40;;;;;;;7.56;83.46;92680.19;521663;28;823;-74
2024/03/27 01:12:43;;;;;;;3.83;3.42;;;;;;;7.59;83.63;92675.59;521797;28;856;-74
2024/03/27 01:12:58;;;;;;;3.63;3.30;;;;;;;7.59;83.56;92673.59;521757;28;858;-74
2024/03/27 01:13:17;;;;;;;3.58;3.28;;;;;;;7.62;83.59;92677.97;521779;28;844;-74
2024/03/27 01:13:33;;;;;;;3.45;3.15;;;;;;;7.60;83.43;92674.34;521823;28;871;-74
2024/03/27 01:13:48;;;;;;;3.47;3.17;;;;;;;7.59;83.41;92673.59;521688;28;781;-74
2024/03/27 01:14:04;;;;;;;3.90;3.50;;;;;;;7.61;83.60;92682.03;521858;28;851;-74
2024/03/27 01:14:19;;;;;;;4.63;3.57;;;;;;;7.63;83.59;92682.22;521642;28;915;-74
2024/03/27 01:14:34;;;;;;;4.67;3.47;;;;;;;7.65;83.48;92681.66;521871;28;757;-74
2024/03/27 01:14:51;;;;;;;3.55;3.22;;;;;;;7.69;83.50;92686.81;521722;28;887;-74
2024/03/27 01:15:08;;;;;;;3.47;3.17;;;;;;;7.70;83.50;92686.25;521756;28;887;-74
2024/03/27 01:15:23;;;;;;;3.50;3.20;;;;;;;7.72;83.36;92691.19;521763;28;789;-74
2024/03/27 01:15:39;;;;;;;3.50;3.20;;;;;;;7.72;83.27;92683.69;521784;28;875;-74
2024/03/27 01:15:54;;;;;;;3.60;3.30;;;;;;;7.72;83.12;92691.19;521833;28;836;-74
2024/03/27 01:16:09;;;;;;;3.40;3.10;;;;;;;7.72;83.19;92686.44;521738;28;831;-74
2024/03/27 01:16:25;;;;;;;3.45;3.15;;;;;;;7.73;83.30;92685.16;521734;28;904;-74
2024/03/27 01:16:40;;;;;;;3.60;3.30;;;;;;;7.74;83.14;92688.63;521789;28;769;-74
2024/03/27 01:16:57;;;;;;;3.53;3.22;;;;;;;7.77;83.26;92682.03;521763;28;855;-74
2024/03/27 01:17:13;;;;;;;3.65;3.33;;;;;;;7.79;83.16;92682.22;521842;28;804;-74
2024/03/27 01:17:28;;;;;;;3.67;3.33;;;;;;;7.78;83.18;92686.97;521748;28;993;-74
2024/03/27 01:17:46;;;;;;;3.88;3.30;;;;;;;7.80;83.14;92691.91;521818;28;878;-74
2024/03/27 01:18:03;;;;;;;3.97;3.33;;;;;;;7.82;83.10;92683.88;521796;28;856;-74
2024/03/27 01:18:18;;;;;;;3.45;3.15;;;;;;;7.70;82.94;92674.50;521733;28;918;-74